createdAt,value
2019-03-26T00:04:53.257Z,40
2019-03-26T00:14:56.759Z,39
2019-03-26T00:25:00.655Z,39
2019-03-26T00:35:04.147Z,39
2019-03-26T00:45:07.660Z,39
2019-03-26T00:55:23.452Z,38
2019-03-26T01:05:26.936Z,38
2019-03-26T01:15:30.441Z,39
2019-03-26T01:25:33.929Z,39
2019-03-26T01:35:37.436Z,40
2019-03-26T01:45:40.944Z,40
2019-03-26T01:55:44.439Z,39
2019-03-26T02:05:47.947Z,40
2019-03-26T02:15:51.447Z,39
2019-03-26T02:25:54.924Z,40
2019-03-26T02:35:58.443Z,39
2019-03-26T02:46:01.981Z,39
2019-03-26T02:56:05.626Z,39
2019-03-26T03:06:09.146Z,38
2019-03-26T03:16:12.643Z,39
2019-03-26T03:26:16.139Z,39
2019-03-26T03:36:19.679Z,40
2019-03-26T03:46:23.198Z,40
2019-03-26T03:56:26.719Z,40
2019-03-26T04:06:30.252Z,39
2019-03-26T04:16:33.766Z,39
2019-03-26T04:26:37.290Z,39
2019-03-26T04:36:40.829Z,20
2019-03-26T04:46:44.357Z,40
2019-03-26T04:56:47.849Z,40
2019-03-26T05:06:51.351Z,40
2019-03-26T05:16:54.859Z,40
2019-03-26T05:26:58.350Z,40
2019-03-26T05:37:01.944Z,40
2019-03-26T05:47:05.487Z,39
2019-03-26T05:57:09.027Z,40
2019-03-26T06:07:12.539Z,40
2019-03-26T06:17:16.020Z,40
2019-03-26T06:27:19.510Z,37
2019-03-26T06:37:22.993Z,52
2019-03-26T06:47:26.585Z,53
2019-03-26T06:57:36.286Z,53
2019-03-26T07:07:39.817Z,55
2019-03-26T07:17:43.320Z,55
2019-03-26T07:27:46.831Z,55
2019-03-26T07:37:50.384Z,55
2019-03-26T07:47:54.042Z,57
2019-03-26T07:57:57.629Z,60
2019-03-26T08:08:01.148Z,61
2019-03-26T08:18:04.952Z,63
2019-03-26T08:28:08.561Z,63
2019-03-26T08:38:13.768Z,63
2019-03-26T08:48:17.329Z,63
2019-03-26T08:58:20.887Z,64
2019-03-26T09:08:26.189Z,64
2019-03-26T09:23:51.999Z,65
2019-03-26T09:33:55.522Z,66
2019-03-26T09:43:59.041Z,67
2019-03-26T09:54:02.544Z,67
2019-03-26T10:04:06.085Z,68
2019-03-26T10:14:09.740Z,57
2019-03-26T10:24:13.475Z,60
2019-03-26T10:34:17.055Z,62
2019-03-26T10:44:20.561Z,63
2019-03-26T10:54:24.111Z,64
2019-03-26T11:04:27.941Z,65
2019-03-26T11:14:32.535Z,60
2019-03-26T11:24:36.199Z,63
2019-03-26T11:34:39.870Z,65
2019-03-26T11:44:43.579Z,66
2019-03-26T11:54:47.571Z,71
2019-03-26T12:04:51.291Z,75
2019-03-26T12:14:55.569Z,78
2019-03-26T12:24:59.273Z,83
2019-03-26T12:35:02.770Z,83
2019-03-26T12:45:07.748Z,83
2019-03-26T12:55:11.306Z,81
2019-03-26T13:05:14.811Z,81
2019-03-26T13:15:18.327Z,82
2019-03-26T13:25:21.817Z,83
2019-03-26T13:35:25.318Z,90
2019-03-26T13:45:28.940Z,79
2019-03-26T13:55:32.468Z,82
2019-03-26T14:05:36.156Z,82
2019-03-26T14:15:39.735Z,81
2019-03-26T14:25:43.269Z,83
2019-03-26T14:35:46.791Z,79
2019-03-26T14:45:50.318Z,82
2019-03-26T14:55:53.812Z,83
2019-03-26T15:05:57.363Z,83
2019-03-26T15:16:00.883Z,80
2019-03-26T15:26:04.366Z,72
2019-03-26T15:36:08.010Z,75
2019-03-26T15:46:11.699Z,74
2019-03-26T15:56:15.228Z,76
2019-03-26T16:06:18.761Z,77
2019-03-26T16:16:22.273Z,76
2019-03-26T16:26:25.773Z,76
2019-03-26T16:36:29.256Z,75
2019-03-26T16:46:36.105Z,74
2019-03-26T16:56:39.996Z,74
2019-03-26T17:06:43.511Z,74
2019-03-26T17:16:47.020Z,71
2019-03-26T17:26:50.594Z,69
2019-03-26T17:36:54.075Z,68
2019-03-26T17:46:57.588Z,68
2019-03-26T17:57:01.099Z,67
2019-03-26T18:07:05.985Z,66
2019-03-26T18:17:09.499Z,66
2019-03-26T18:27:13.016Z,64
2019-03-26T18:37:16.513Z,64
2019-03-26T18:47:20.022Z,65
2019-03-26T18:57:23.526Z,65
2019-03-26T19:07:27.041Z,65
2019-03-26T19:17:31.549Z,63
2019-03-26T19:27:35.056Z,63
2019-03-26T19:37:38.537Z,63
2019-03-26T19:47:42.048Z,63
2019-03-26T19:57:45.569Z,62
2019-03-26T20:07:49.156Z,61
2019-03-26T20:17:52.658Z,61
2019-03-26T20:27:56.142Z,61
2019-03-26T20:37:59.635Z,61
2019-03-26T20:48:03.166Z,61
2019-03-26T20:58:06.685Z,61
2019-03-26T21:08:10.210Z,59
2019-03-26T21:18:13.791Z,59
2019-03-26T21:28:17.319Z,60
2019-03-26T21:38:20.858Z,59
2019-03-26T21:48:24.374Z,59
2019-03-26T21:58:27.882Z,59
2019-03-26T22:08:31.408Z,59
2019-03-26T22:18:34.915Z,59
2019-03-26T22:28:38.425Z,59
2019-03-26T22:38:41.934Z,58
2019-03-26T22:48:45.454Z,58
2019-03-26T22:58:48.967Z,57
2019-03-26T23:08:52.485Z,58
2019-03-26T23:18:56.026Z,56
2019-03-26T23:28:59.542Z,56
2019-03-26T23:39:03.039Z,56
2019-03-26T23:49:06.547Z,56
2019-03-26T23:59:10.059Z,56
